TimeCDT,TemperatureF,Dew PointF,Humidity,Sea Level PressureIn,VisibilityMPH,Wind Direction,Wind SpeedMPH,Gust SpeedMPH,PrecipitationIn,Events,Conditions,WindDirDegrees,DateUTC
12:15 AM,78.8,68.7,71,29.99,10.0,SE,6.9,-,N/A,,Clear,140,2013-07-20 05:15:00
12:35 AM,80.4,68.0,66,29.99,10.0,SSE,5.8,-,N/A,,Clear,150,2013-07-20 05:35:00
12:55 AM,79.7,68.4,68,29.99,10.0,SSE,6.9,-,N/A,,Clear,160,2013-07-20 05:55:00
1:15 AM,78.8,68.9,72,29.99,10.0,SSE,6.9,-,N/A,,Clear,160,2013-07-20 06:15:00
1:35 AM,78.8,68.9,72,29.99,10.0,SSE,6.9,-,N/A,,Clear,160,2013-07-20 06:35:00
1:55 AM,78.4,68.9,72,29.99,10.0,SSE,5.8,-,N/A,,Clear,160,2013-07-20 06:55:00
2:15 AM,78.3,68.5,72,29.98,10.0,SSE,6.9,-,N/A,,Clear,160,2013-07-20 07:15:00
2:35 AM,77.7,68.7,74,29.99,10.0,South,4.6,-,N/A,,Clear,170,2013-07-20 07:35:00
2:55 AM,76.6,68.9,77,29.98,10.0,South,5.8,-,N/A,,Clear,170,2013-07-20 07:55:00
3:15 AM,77.0,68.7,75,29.98,10.0,South,8.1,-,N/A,,Clear,170,2013-07-20 08:15:00
3:35 AM,77.2,68.2,74,29.97,10.0,South,6.9,-,N/A,,Clear,170,2013-07-20 08:35:00
3:55 AM,76.6,68.0,75,29.97,10.0,South,5.8,-,N/A,,Clear,170,2013-07-20 08:55:00
4:15 AM,76.1,68.0,76,29.97,10.0,SSW,5.8,-,N/A,,Clear,200,2013-07-20 09:15:00
4:35 AM,75.6,67.8,77,29.97,10.0,SW,4.6,-,N/A,,Clear,220,2013-07-20 09:35:00
4:55 AM,75.0,67.5,77,29.97,10.0,SSW,4.6,-,N/A,,Clear,210,2013-07-20 09:55:00
5:15 AM,74.8,67.1,77,29.97,10.0,South,5.8,-,N/A,,Clear,190,2013-07-20 10:15:00
5:35 AM,74.8,66.4,75,29.97,10.0,South,6.9,-,N/A,,Clear,180,2013-07-20 10:35:00
5:55 AM,74.5,66.2,75,29.97,10.0,South,5.8,-,N/A,,Clear,190,2013-07-20 10:55:00
6:15 AM,74.1,66.2,76,29.97,10.0,SSW,5.8,-,N/A,,Clear,200,2013-07-20 11:15:00
6:59 AM,73.4,66.2,78,29.97,10.0,South,4.6,-,N/A,,Clear,190,2013-07-20 11:59:00
7:18 AM,73.4,66.2,78,29.96,10.0,South,5.8,-,N/A,,Clear,190,2013-07-20 12:18:00
7:39 AM,75.2,66.2,73,29.96,10.0,South,4.6,-,N/A,,Clear,170,2013-07-20 12:39:00
7:58 AM,77.0,66.2,69,29.97,10.0,South,3.5,-,N/A,,Clear,190,2013-07-20 12:58:00
8:15 AM,77.4,65.5,67,29.97,10.0,South,4.6,-,N/A,,Clear,190,2013-07-20 13:15:00
8:35 AM,78.8,65.3,63,29.97,10.0,SSW,6.9,-,N/A,,Clear,210,2013-07-20 13:35:00
8:55 AM,79.9,64.9,60,29.97,10.0,SSW,8.1,-,N/A,,Clear,210,2013-07-20 13:55:00
9:15 AM,81.1,65.1,58,29.97,10.0,SW,8.1,-,N/A,,Clear,220,2013-07-20 14:15:00
9:35 AM,82.6,65.7,56,29.97,10.0,SW,10.4,-,N/A,,Clear,230,2013-07-20 14:35:00
9:55 AM,84.2,65.5,53,29.97,10.0,WSW,11.5,-,N/A,,Clear,250,2013-07-20 14:55:00
10:15 AM,85.6,65.1,50,29.97,10.0,SW,10.4,-,N/A,,Clear,230,2013-07-20 15:15:00
10:35 AM,-9999,-9999,N/A,29.97,10.0,WSW,9.2,-,N/A,,Unknown,240,2013-07-20 15:35:00
10:55 AM,88.3,65.1,46,29.97,10.0,WSW,6.9,-,N/A,,Clear,250,2013-07-20 15:55:00
11:15 AM,89.4,64.8,44,29.97,10.0,SW,8.1,-,N/A,,Clear,230,2013-07-20 16:15:00
11:35 AM,90.5,63.1,40,29.97,10.0,SW,9.2,-,N/A,,Clear,230,2013-07-20 16:35:00
11:55 AM,91.2,62.2,38,29.96,10.0,WSW,8.1,-,N/A,,Clear,250,2013-07-20 16:55:00
12:15 PM,92.1,59.7,34,29.96,10.0,WSW,6.9,16.1,N/A,,Clear,250,2013-07-20 17:15:00
12:35 PM,92.8,59.2,32,29.96,10.0,SW,5.8,-,N/A,,Clear,220,2013-07-20 17:35:00
12:55 PM,93.2,58.6,31,29.95,10.0,WSW,4.6,9.2,N/A,,Clear,240,2013-07-20 17:55:00
1:35 PM,94.6,57.6,29,29.94,10.0,SSW,5.8,-,N/A,,Scattered Clouds,210,2013-07-20 18:35:00
1:55 PM,94.6,58.5,30,29.94,10.0,SW,12.7,17.3,N/A,,Clear,220,2013-07-20 18:55:00
2:15 PM,95.4,58.3,29,29.93,10.0,South,5.8,16.1,N/A,,Clear,170,2013-07-20 19:15:00
2:35 PM,95.5,58.5,29,29.93,10.0,SW,9.2,19.6,N/A,,Clear,220,2013-07-20 19:35:00
2:55 PM,95.9,58.3,28,29.91,10.0,SSW,11.5,-,N/A,,Clear,210,2013-07-20 19:55:00
3:15 PM,95.9,58.1,28,29.91,10.0,SSE,10.4,-,N/A,,Scattered Clouds,160,2013-07-20 20:15:00
3:35 PM,96.3,58.8,29,29.90,10.0,SSW,9.2,-,N/A,,Clear,210,2013-07-20 20:35:00
3:55 PM,95.9,59.0,29,29.89,10.0,SSW,6.9,-,N/A,,Scattered Clouds,210,2013-07-20 20:55:00
4:15 PM,96.6,59.5,29,29.88,10.0,South,5.8,-,N/A,,Scattered Clouds,180,2013-07-20 21:15:00
4:35 PM,96.8,58.8,28,29.88,10.0,SSW,6.9,10.4,N/A,,Scattered Clouds,200,2013-07-20 21:35:00
4:55 PM,96.6,58.3,28,29.87,10.0,SSW,9.2,-,N/A,,Clear,200,2013-07-20 21:55:00
5:15 PM,96.3,57.9,28,29.87,10.0,SSW,10.4,-,N/A,,Clear,200,2013-07-20 22:15:00
5:55 PM,97.0,58.8,28,29.85,10.0,SSW,10.4,-,N/A,,Clear,200,2013-07-20 22:55:00
6:15 PM,96.3,58.1,28,29.85,10.0,SSE,8.1,-,N/A,,Clear,160,2013-07-20 23:15:00
6:35 PM,96.4,58.1,28,29.85,10.0,SSW,10.4,-,N/A,,Clear,200,2013-07-20 23:35:00
6:55 PM,95.9,57.7,28,29.85,10.0,South,6.9,-,N/A,,Clear,180,2013-07-20 23:55:00
7:15 PM,95.2,57.9,29,29.85,10.0,South,4.6,-,N/A,,Clear,180,2013-07-21 00:15:00
7:35 PM,95.0,57.4,28,29.85,10.0,SSW,9.2,-,N/A,,Scattered Clouds,200,2013-07-21 00:35:00
7:55 PM,93.9,57.9,30,29.85,10.0,South,6.9,-,N/A,,Clear,180,2013-07-21 00:55:00
8:15 PM,91.4,60.1,35,29.85,10.0,South,6.9,-,N/A,,Clear,180,2013-07-21 01:15:00
8:35 PM,89.4,62.1,40,29.84,10.0,South,6.9,-,N/A,,Clear,170,2013-07-21 01:35:00
8:55 PM,87.6,63.3,44,29.85,10.0,SSE,6.9,-,N/A,,Clear,160,2013-07-21 01:55:00
9:15 PM,86.4,64.0,47,29.86,10.0,South,6.9,-,N/A,,Clear,170,2013-07-21 02:15:00
9:35 PM,85.8,64.2,48,29.87,10.0,SSE,5.8,-,N/A,,Clear,150,2013-07-21 02:35:00
9:55 PM,85.5,64.6,49,29.88,10.0,SSE,5.8,-,N/A,,Clear,150,2013-07-21 02:55:00
10:15 PM,84.9,65.7,52,29.88,10.0,SE,4.6,-,N/A,,Clear,140,2013-07-21 03:15:00
10:35 PM,83.8,66.6,56,29.89,10.0,SSE,6.9,-,N/A,,Clear,150,2013-07-21 03:35:00
10:55 PM,83.5,66.2,56,29.89,10.0,SSE,6.9,-,N/A,,Clear,150,2013-07-21 03:55:00
11:15 PM,83.3,66.0,56,29.90,10.0,SSE,6.9,-,N/A,,Clear,150,2013-07-21 04:15:00
11:35 PM,83.1,65.5,55,29.90,10.0,SSE,10.4,-,N/A,,Clear,160,2013-07-21 04:35:00
11:55 PM,83.1,64.8,54,29.90,10.0,SSE,11.5,-,N/A,,Clear,160,2013-07-21 04:55:00